CheckWX is a tool to help pilots better visualize weather data.  It is not intended as a substitute for an official pre-flight weather briefing.

13:19:49 UTC

4O4 METAR
Mc Curtain County Regional Airport
Idabel, Oklahoma, USA
Current

25 mins ago

K4O4 211255Z AUTO 15007KT 10SM SCT007 SCT080 21/20 A3010 RMK AO2
Observed
Sep-21 @ 12:55 UTC
Wind
  • 150° at 7 KTS
Visibility
10 SM
Flight Rules
VFR
Cloud Levels
  • Scattered at 700' AGL
  • Scattered at 8,000' AGL
Temperature
21°C / 70°F
Dewpoint
20°C / 68°F
Humidity
94%
Altimeter
30.1" Hg
Pressure
1019.32 hPa
Previous

45 mins ago

K4O4 211235Z AUTO 14007KT 10SM SCT080 21/20 A3010 RMK AO2
Observed
Sep-21 @ 12:35 UTC
Wind
  • 140° at 7 KTS
Visibility
10 SM
Flight Rules
VFR
Cloud Levels
  • Scattered at 8,000' AGL
Temperature
21°C / 70°F
Dewpoint
20°C / 68°F
Humidity
94%
Altimeter
30.1" Hg
Pressure
1019.32 hPa
Previous

1 hour ago

K4O4 211215Z AUTO 14005KT 10SM SCT080 21/20 A3010 RMK AO2
Observed
Sep-21 @ 12:15 UTC
Wind
  • 140° at 5 KTS
Visibility
10 SM
Flight Rules
VFR
Cloud Levels
  • Scattered at 8,000' AGL
Temperature
21°C / 70°F
Dewpoint
20°C / 68°F
Humidity
94%
Altimeter
30.1" Hg
Pressure
1019.32 hPa